createdAt,value
2022-11-30T00:01:18.968Z,26.57
2022-11-30T00:03:46.287Z,24.70
2022-11-30T00:06:16.127Z,24.63
2022-11-30T00:08:43.672Z,25.13
2022-11-30T00:11:17.710Z,24.37
2022-11-30T00:13:45.195Z,25.97
2022-11-30T00:16:12.389Z,26.17
2022-11-30T00:18:39.588Z,25.90
2022-11-30T00:21:10.211Z,24.60
2022-11-30T00:23:42.410Z,27.33
2022-11-30T00:26:12.013Z,26.20
2022-11-30T00:28:40.184Z,27.50
2022-11-30T00:31:12.208Z,27.40
2022-11-30T00:33:39.856Z,26.73
2022-11-30T00:36:10.897Z,28.27
2022-11-30T00:38:38.298Z,28.40
2022-11-30T00:41:05.655Z,30.17
2022-11-30T00:43:32.974Z,29.50
2022-11-30T00:46:00.187Z,29.63
2022-11-30T00:48:27.619Z,29.63
2022-11-30T00:50:54.785Z,28.30
2022-11-30T00:53:22.126Z,30.50
2022-11-30T00:55:49.742Z,31.07
2022-11-30T00:58:17.183Z,31.43
2022-11-30T01:00:44.686Z,31.67
2022-11-30T01:03:12.022Z,30.63
2022-11-30T01:05:39.673Z,30.83
2022-11-30T01:08:09.058Z,27.33
2022-11-30T01:10:38.600Z,29.97
2022-11-30T01:13:06.600Z,28.57
2022-11-30T01:15:43.827Z,28.00
2022-11-30T01:18:11.350Z,27.63
2022-11-30T01:20:44.630Z,28.57
2022-11-30T01:23:12.095Z,28.03
2022-11-30T01:25:39.426Z,28.00
2022-11-30T01:28:08.740Z,27.57
2022-11-30T01:30:35.901Z,28.33
2022-11-30T01:33:04.559Z,29.17
2022-11-30T01:35:31.775Z,28.13
2022-11-30T01:37:58.930Z,29.67
2022-11-30T01:40:26.071Z,29.67
2022-11-30T01:42:53.233Z,28.50
2022-11-30T01:45:20.394Z,28.43
2022-11-30T01:47:52.488Z,30.23
2022-11-30T01:50:30.557Z,31.30
2022-11-30T01:52:58.112Z,30.97
2022-11-30T01:55:34.817Z,33.33
2022-11-30T01:58:23.712Z,32.07
2022-11-30T02:00:51.079Z,31.27
2022-11-30T02:03:33.235Z,32.33
2022-11-30T02:06:00.966Z,32.13
2022-11-30T02:08:30.389Z,34.77
2022-11-30T02:11:04.587Z,32.93
2022-11-30T02:13:58.451Z,32.23
2022-11-30T02:16:49.625Z,33.37
2022-11-30T02:19:35.523Z,33.17
2022-11-30T02:22:17.959Z,32.43
2022-11-30T02:25:15.840Z,33.80
2022-11-30T02:28:10.198Z,31.20
2022-11-30T02:30:43.676Z,30.93
2022-11-30T02:33:15.339Z,31.40
2022-11-30T02:35:50.332Z,29.63
2022-11-30T02:38:23.870Z,29.87
2022-11-30T02:40:51.104Z,30.00
2022-11-30T02:43:21.531Z,30.00
2022-11-30T02:45:58.549Z,29.17
2022-11-30T02:48:49.306Z,27.23
2022-11-30T02:51:20.089Z,25.63
2022-11-30T02:53:48.594Z,24.80
2022-11-30T02:56:17.354Z,26.07
2022-11-30T02:58:44.603Z,23.50
2022-11-30T03:01:11.810Z,24.30
2022-11-30T03:03:39.110Z,25.83
2022-11-30T03:06:06.426Z,24.80
2022-11-30T03:08:33.571Z,22.80
2022-11-30T03:11:05.202Z,22.50
2022-11-30T03:13:33.556Z,21.33
2022-11-30T03:16:12.537Z,23.27
2022-11-30T03:18:40.536Z,23.07
2022-11-30T03:21:09.671Z,23.90
2022-11-30T03:23:37.870Z,24.30
2022-11-30T03:26:06.647Z,24.67
2022-11-30T03:28:34.425Z,23.57
2022-11-30T03:31:01.825Z,24.30
2022-11-30T03:33:29.020Z,24.60
2022-11-30T03:36:01.258Z,23.90
2022-11-30T03:38:28.997Z,24.37
2022-11-30T03:41:04.184Z,24.90
2022-11-30T03:43:31.414Z,23.30
2022-11-30T03:45:59.051Z,23.23
2022-11-30T03:48:26.392Z,24.77
2022-11-30T03:50:53.662Z,25.13
2022-11-30T03:53:22.694Z,26.40
2022-11-30T03:55:57.905Z,25.43
2022-11-30T03:58:25.769Z,26.30
2022-11-30T04:01:08.621Z,25.70
2022-11-30T04:03:36.145Z,27.33
2022-11-30T04:06:05.344Z,27.20
2022-11-30T04:08:33.220Z,25.07
2022-11-30T04:11:02.577Z,26.43
2022-11-30T04:13:31.392Z,28.13
2022-11-30T04:15:59.085Z,28.53
2022-11-30T04:18:27.677Z,28.53
2022-11-30T04:20:56.459Z,27.93
2022-11-30T04:23:25.207Z,28.13
2022-11-30T04:25:52.804Z,28.90
2022-11-30T04:28:20.436Z,28.47
2022-11-30T04:30:47.909Z,28.13
2022-11-30T04:33:16.446Z,27.50
2022-11-30T04:35:50.777Z,27.60
2022-11-30T04:38:18.038Z,28.10
2022-11-30T04:40:45.872Z,28.13
2022-11-30T04:43:13.377Z,28.27
2022-11-30T04:45:40.876Z,27.93
2022-11-30T04:48:08.614Z,29.03
2022-11-30T04:50:36.175Z,27.90
2022-11-30T04:53:03.739Z,29.00
2022-11-30T04:55:31.308Z,28.77
2022-11-30T04:57:58.628Z,27.67
2022-11-30T05:00:26.011Z,29.57
2022-11-30T05:02:55.083Z,28.60
2022-11-30T05:05:22.582Z,29.50
2022-11-30T05:07:59.613Z,29.23
2022-11-30T05:10:28.162Z,27.37
2022-11-30T05:12:56.224Z,27.97
2022-11-30T05:15:23.419Z,27.83
2022-11-30T05:17:50.600Z,27.80
2022-11-30T05:20:17.775Z,29.53
2022-11-30T05:22:44.925Z,27.40
2022-11-30T05:25:12.443Z,27.50
2022-11-30T05:27:39.619Z,27.47
2022-11-30T05:30:07.988Z,26.70
2022-11-30T05:32:35.250Z,27.13
2022-11-30T05:35:02.437Z,25.40
2022-11-30T05:37:29.777Z,24.40
2022-11-30T05:39:56.938Z,24.90
2022-11-30T05:42:24.165Z,27.10
2022-11-30T05:44:51.363Z,26.40
2022-11-30T05:47:18.663Z,27.67
2022-11-30T05:49:45.893Z,25.67
2022-11-30T05:52:13.050Z,25.07
2022-11-30T05:54:40.202Z,24.63
2022-11-30T05:57:07.377Z,24.73
2022-11-30T05:59:34.540Z,24.53
2022-11-30T06:02:01.832Z,25.20
2022-11-30T06:04:29.239Z,25.63
2022-11-30T06:06:56.554Z,24.80
2022-11-30T06:09:23.767Z,24.60
2022-11-30T06:11:51.427Z,23.33
2022-11-30T06:14:18.586Z,23.73
2022-11-30T06:16:45.987Z,23.00
2022-11-30T06:19:13.210Z,25.93
2022-11-30T06:21:40.351Z,23.90
2022-11-30T06:24:07.857Z,24.50
2022-11-30T06:26:34.992Z,24.73
2022-11-30T06:29:02.153Z,23.87
2022-11-30T06:31:31.279Z,24.47
2022-11-30T06:33:58.828Z,25.07
2022-11-30T06:36:28.886Z,23.30
2022-11-30T06:38:59.849Z,24.80
2022-11-30T06:41:27.044Z,24.97
2022-11-30T06:43:54.207Z,26.00
2022-11-30T06:46:22.150Z,26.87
2022-11-30T06:48:50.761Z,25.67
2022-11-30T06:51:18.564Z,24.90
2022-11-30T06:53:46.458Z,24.20
2022-11-30T06:56:13.854Z,23.87
2022-11-30T06:58:41.801Z,23.80
2022-11-30T07:01:12.323Z,24.33
2022-11-30T07:03:40.384Z,24.53
2022-11-30T07:06:10.334Z,24.37
2022-11-30T07:08:38.248Z,25.67
2022-11-30T07:11:06.949Z,24.90
2022-11-30T07:13:34.225Z,24.37
2022-11-30T07:16:05.342Z,25.77
2022-11-30T07:18:33.211Z,24.63
2022-11-30T07:21:01.204Z,25.70
2022-11-30T07:23:52.343Z,24.87
2022-11-30T07:26:23.937Z,24.03
2022-11-30T07:28:54.980Z,23.87
2022-11-30T07:31:27.704Z,25.17
2022-11-30T07:33:56.090Z,24.50
2022-11-30T07:36:25.806Z,26.13
2022-11-30T07:38:52.950Z,26.30
2022-11-30T07:41:20.109Z,26.90
2022-11-30T07:43:47.289Z,25.20
2022-11-30T07:46:16.100Z,25.23
2022-11-30T07:48:44.722Z,24.83
2022-11-30T07:51:22.165Z,24.93
2022-11-30T07:53:50.118Z,25.77
2022-11-30T07:56:19.667Z,24.47
2022-11-30T07:58:48.399Z,24.93
2022-11-30T08:01:21.723Z,25.70
2022-11-30T08:03:50.287Z,24.03
2022-11-30T08:06:20.873Z,24.77
2022-11-30T08:08:50.089Z,25.87
2022-11-30T08:11:20.733Z,28.57
2022-11-30T08:13:48.106Z,26.30
2022-11-30T08:16:21.389Z,26.43
2022-11-30T08:18:49.473Z,24.57
2022-11-30T08:21:19.315Z,23.93
2022-11-30T08:23:49.154Z,22.93
2022-11-30T08:26:21.110Z,22.50
2022-11-30T08:28:51.051Z,23.30
2022-11-30T08:31:21.509Z,24.53
2022-11-30T08:33:48.963Z,25.30
2022-11-30T08:36:21.565Z,25.03
2022-11-30T08:38:49.446Z,24.37
2022-11-30T08:41:19.429Z,22.00
2022-11-30T08:43:47.730Z,23.17
2022-11-30T08:49:22.461Z,23.47
2022-11-30T08:54:42.609Z,22.67
2022-11-30T08:57:09.973Z,22.30
2022-11-30T08:59:37.281Z,21.97
2022-11-30T09:02:04.570Z,22.63
2022-11-30T09:04:31.705Z,23.77
2022-11-30T09:07:00.711Z,23.00
2022-11-30T09:09:28.673Z,21.40
2022-11-30T09:11:55.906Z,21.87
2022-11-30T09:14:23.130Z,21.77
2022-11-30T09:16:50.284Z,20.27
2022-11-30T09:19:17.588Z,21.60
2022-11-30T09:21:51.143Z,20.37
2022-11-30T09:24:19.144Z,20.03
2022-11-30T09:26:46.339Z,20.33
2022-11-30T09:29:13.524Z,21.17
2022-11-30T09:31:40.712Z,20.53
2022-11-30T09:34:10.586Z,21.70
2022-11-30T09:36:37.770Z,20.23
2022-11-30T09:39:05.079Z,20.30
2022-11-30T09:41:53.196Z,20.30
2022-11-30T09:44:35.861Z,21.13
2022-11-30T09:47:08.341Z,20.63
2022-11-30T09:49:40.762Z,22.37
2022-11-30T09:52:14.045Z,21.53
2022-11-30T09:54:43.707Z,21.47
2022-11-30T09:57:13.658Z,21.30
2022-11-30T09:59:48.473Z,19.87
2022-11-30T10:02:18.974Z,19.67
2022-11-30T10:04:46.537Z,19.60
2022-11-30T10:07:36.330Z,19.87
2022-11-30T10:10:30.948Z,20.17
2022-11-30T10:13:24.990Z,20.77
2022-11-30T10:16:16.053Z,19.97
2022-11-30T10:19:06.077Z,20.67
2022-11-30T10:22:01.323Z,19.67
2022-11-30T10:24:56.755Z,20.70
2022-11-30T10:27:50.924Z,19.50
2022-11-30T10:30:23.715Z,19.70
2022-11-30T10:32:55.945Z,19.37
2022-11-30T10:35:39.204Z,19.10
2022-11-30T10:38:36.802Z,19.77
2022-11-30T10:41:14.614Z,19.23
2022-11-30T10:43:44.845Z,19.70
2022-11-30T10:46:24.463Z,18.97
2022-11-30T10:49:08.040Z,20.10
2022-11-30T10:51:38.778Z,18.47
2022-11-30T10:54:18.053Z,20.17
2022-11-30T10:56:45.910Z,19.63
2022-11-30T10:59:23.662Z,18.63
2022-11-30T11:01:53.016Z,17.13
2022-11-30T11:04:25.656Z,18.77
2022-11-30T11:07:09.164Z,18.03
2022-11-30T11:09:46.909Z,17.93
2022-11-30T11:12:27.508Z,17.60
2022-11-30T11:15:17.089Z,16.60
2022-11-30T11:17:44.973Z,17.77
2022-11-30T11:20:44.893Z,17.87
2022-11-30T11:23:45.253Z,16.87
2022-11-30T11:26:18.706Z,16.53
2022-11-30T11:28:49.990Z,18.50
2022-11-30T11:31:50.865Z,20.90
2022-11-30T11:34:32.413Z,19.47
2022-11-30T11:37:07.519Z,19.93
2022-11-30T11:39:34.701Z,20.50
2022-11-30T11:42:03.630Z,21.33
2022-11-30T11:44:31.685Z,21.63
2022-11-30T11:47:02.327Z,22.43
2022-11-30T11:49:37.733Z,21.53
2022-11-30T11:52:05.929Z,21.47
2022-11-30T11:54:55.130Z,21.57
2022-11-30T11:57:28.334Z,21.80
2022-11-30T12:00:02.341Z,19.23
2022-11-30T12:02:52.810Z,19.97
2022-11-30T12:05:24.475Z,19.77
2022-11-30T12:08:05.580Z,18.53
2022-11-30T12:10:53.032Z,17.87
2022-11-30T12:13:27.166Z,16.80
2022-11-30T12:16:05.175Z,17.90
2022-11-30T12:19:07.699Z,18.60
2022-11-30T12:21:53.586Z,19.53
2022-11-30T12:24:20.695Z,18.93
2022-11-30T12:26:58.403Z,19.20
2022-11-30T12:29:34.351Z,18.23
2022-11-30T12:32:23.014Z,16.80
2022-11-30T12:35:11.218Z,15.83
2022-11-30T12:37:47.167Z,15.47
2022-11-30T12:40:32.826Z,17.67
2022-11-30T12:43:22.583Z,16.00
2022-11-30T12:45:55.936Z,17.57
2022-11-30T12:48:25.884Z,18.97
2022-11-30T12:51:07.890Z,17.83
2022-11-30T12:53:53.750Z,16.90
2022-11-30T12:56:31.079Z,17.47
2022-11-30T12:59:31.941Z,16.57
2022-11-30T13:02:18.034Z,17.67
2022-11-30T13:04:58.237Z,18.10
2022-11-30T13:07:29.016Z,31.20
2022-11-30T13:10:12.470Z,18.50
2022-11-30T13:12:44.989Z,25.97
2022-11-30T13:15:31.139Z,18.67
2022-11-30T13:17:58.741Z,17.87
2022-11-30T13:20:51.608Z,17.13
2022-11-30T13:23:36.031Z,16.53
2022-11-30T13:26:25.989Z,16.20
2022-11-30T13:29:03.980Z,16.20
2022-11-30T13:31:40.418Z,16.03
2022-11-30T13:34:27.407Z,14.87
2022-11-30T13:37:23.098Z,15.93
2022-11-30T13:39:57.410Z,15.07
2022-11-30T13:42:35.673Z,17.40
2022-11-30T13:45:11.865Z,15.87
2022-11-30T13:48:00.712Z,17.97
2022-11-30T13:50:37.091Z,19.30
2022-11-30T13:53:04.295Z,20.10
2022-11-30T13:55:49.619Z,19.03
2022-11-30T13:58:19.454Z,20.10
2022-11-30T14:01:18.587Z,20.07
2022-11-30T14:04:14.399Z,18.83
2022-11-30T14:06:41.568Z,18.63
2022-11-30T14:09:35.773Z,19.03
2022-11-30T14:12:30.974Z,19.33
2022-11-30T14:14:59.255Z,20.70
2022-11-30T14:17:28.301Z,20.17
2022-11-30T14:20:07.225Z,20.13
2022-11-30T14:22:34.965Z,20.83
2022-11-30T14:25:02.922Z,19.30
2022-11-30T14:27:30.989Z,19.83
2022-11-30T14:30:03.073Z,19.87
2022-11-30T14:32:35.228Z,21.33
2022-11-30T14:35:09.305Z,20.53
2022-11-30T14:37:43.701Z,20.43
2022-11-30T14:40:19.129Z,20.83
2022-11-30T14:42:49.599Z,21.90
2022-11-30T14:45:35.302Z,22.13
2022-11-30T14:48:13.938Z,22.13
2022-11-30T14:50:51.518Z,22.40
2022-11-30T14:53:34.158Z,23.50
2022-11-30T14:56:24.457Z,23.63
2022-11-30T14:59:23.050Z,23.67
2022-11-30T15:01:59.860Z,22.93
2022-11-30T15:04:29.058Z,23.13
2022-11-30T15:06:57.278Z,23.07
2022-11-30T15:09:28.128Z,22.77
2022-11-30T15:11:56.113Z,22.90
2022-11-30T15:14:24.282Z,22.67
2022-11-30T15:16:54.693Z,22.90
2022-11-30T15:19:29.043Z,22.50
2022-11-30T15:21:57.879Z,22.77
2022-11-30T15:24:26.484Z,21.83
2022-11-30T15:27:14.042Z,24.33
2022-11-30T15:29:46.856Z,22.77
2022-11-30T15:32:20.111Z,22.90
2022-11-30T15:34:52.220Z,23.07
2022-11-30T15:37:29.451Z,24.43
2022-11-30T15:39:59.648Z,21.53
2022-11-30T15:42:40.957Z,22.27
2022-11-30T15:45:26.125Z,37.80
2022-11-30T15:47:55.041Z,32.27
2022-11-30T15:50:31.121Z,24.57
2022-11-30T15:53:20.245Z,27.33
2022-11-30T15:55:49.668Z,34.37
2022-11-30T15:59:00.633Z,23.87
2022-11-30T16:01:28.690Z,24.27
2022-11-30T16:03:55.943Z,24.83
2022-11-30T16:06:44.052Z,24.97
2022-11-30T16:09:32.239Z,22.23
2022-11-30T16:12:01.740Z,24.87
2022-11-30T16:14:28.998Z,22.77
2022-11-30T16:16:56.762Z,22.80
2022-11-30T16:19:23.990Z,23.20
2022-11-30T16:21:51.235Z,22.70
2022-11-30T16:24:18.565Z,22.67
2022-11-30T16:26:51.294Z,22.63
2022-11-30T16:29:19.567Z,22.17
2022-11-30T16:31:46.777Z,22.27
2022-11-30T16:34:14.026Z,22.73
2022-11-30T16:36:41.227Z,22.37
2022-11-30T16:39:12.264Z,22.13
2022-11-30T16:41:39.709Z,22.33
2022-11-30T16:44:13.398Z,20.67
2022-11-30T16:46:40.656Z,21.03
2022-11-30T16:49:08.687Z,21.77
2022-11-30T16:51:36.313Z,21.67
2022-11-30T16:54:03.838Z,21.13
2022-11-30T16:56:31.079Z,20.30
2022-11-30T16:58:58.222Z,21.13
2022-11-30T17:01:44.727Z,22.07
2022-11-30T17:04:23.879Z,21.90
2022-11-30T17:06:53.779Z,22.20
2022-11-30T17:09:24.670Z,21.87
2022-11-30T17:11:51.921Z,21.30
2022-11-30T17:14:20.989Z,21.90
2022-11-30T17:16:48.238Z,21.57
2022-11-30T17:19:15.482Z,33.03
2022-11-30T17:21:44.376Z,38.77
2022-11-30T17:24:12.809Z,22.03
2022-11-30T17:26:40.417Z,20.23
2022-11-30T17:29:07.678Z,20.63
2022-11-30T17:31:35.531Z,20.23
2022-11-30T17:34:03.530Z,19.63
2022-11-30T17:36:30.793Z,21.33
2022-11-30T17:38:57.969Z,22.17
2022-11-30T17:41:25.135Z,21.50
2022-11-30T17:43:52.319Z,21.20
2022-11-30T17:46:20.944Z,21.07
2022-11-30T17:48:49.606Z,22.13
2022-11-30T17:51:17.063Z,22.60
2022-11-30T17:53:44.652Z,23.87
2022-11-30T17:56:17.090Z,22.87
2022-11-30T17:58:46.071Z,22.80
2022-11-30T18:01:33.520Z,21.37
2022-11-30T18:04:00.943Z,22.97
2022-11-30T18:06:28.898Z,21.80
2022-11-30T18:08:57.523Z,22.60
2022-11-30T18:11:26.028Z,22.83
2022-11-30T18:13:55.321Z,24.13
2022-11-30T18:16:28.062Z,24.37
2022-11-30T18:18:57.240Z,24.00
2022-11-30T18:21:27.716Z,24.67
2022-11-30T18:23:55.245Z,23.73
2022-11-30T18:26:24.168Z,25.27
2022-11-30T18:29:01.556Z,24.47
2022-11-30T18:31:30.625Z,24.73
2022-11-30T18:33:59.636Z,24.80
2022-11-30T18:36:27.505Z,24.23
2022-11-30T18:38:55.002Z,23.33
2022-11-30T18:41:24.067Z,23.97
2022-11-30T18:43:51.351Z,23.80
2022-11-30T18:46:18.560Z,24.97
2022-11-30T18:48:49.009Z,25.40
2022-11-30T18:51:22.040Z,24.70
2022-11-30T18:53:49.443Z,23.97
2022-11-30T18:56:19.519Z,28.27
2022-11-30T18:58:47.774Z,27.13
2022-11-30T19:01:20.250Z,24.90
2022-11-30T19:03:55.598Z,24.90
2022-11-30T19:06:25.169Z,25.73
2022-11-30T19:08:52.320Z,25.63
2022-11-30T19:11:19.597Z,24.63
2022-11-30T19:13:46.778Z,26.03
2022-11-30T19:16:16.405Z,25.37
2022-11-30T19:18:46.683Z,25.70
2022-11-30T19:21:16.165Z,26.33
2022-11-30T19:23:43.574Z,25.53
2022-11-30T19:26:11.345Z,25.97
2022-11-30T19:28:39.817Z,26.87
2022-11-30T19:31:12.691Z,26.50
2022-11-30T19:33:41.265Z,27.93
2022-11-30T19:36:23.622Z,28.57
2022-11-30T19:38:51.425Z,29.63
2022-11-30T19:41:20.115Z,27.03
2022-11-30T19:43:53.966Z,26.77
2022-11-30T19:46:24.636Z,28.40
2022-11-30T19:48:57.842Z,28.03
2022-11-30T19:51:25.002Z,27.43
2022-11-30T19:53:55.489Z,26.20
2022-11-30T19:56:23.601Z,27.03
2022-11-30T19:58:51.132Z,27.47
2022-11-30T20:01:23.981Z,26.70
2022-11-30T20:03:52.795Z,28.70
2022-11-30T20:06:23.477Z,27.57
2022-11-30T20:08:50.632Z,28.00
2022-11-30T20:11:17.767Z,27.27
2022-11-30T20:13:45.868Z,28.20
2022-11-30T20:16:16.095Z,27.10
2022-11-30T20:18:46.559Z,27.60
2022-11-30T20:21:17.792Z,27.57
2022-11-30T20:23:46.960Z,27.00
2022-11-30T20:26:20.028Z,27.40
2022-11-30T20:28:48.953Z,27.43
2022-11-30T20:31:18.387Z,31.90
2022-11-30T20:33:45.873Z,28.93
2022-11-30T20:36:15.700Z,27.67
2022-11-30T20:38:42.927Z,26.83
2022-11-30T20:41:16.009Z,27.80
2022-11-30T20:43:43.628Z,28.70
2022-11-30T20:46:19.509Z,28.17
2022-11-30T20:48:47.813Z,28.00
2022-11-30T20:51:32.515Z,28.83
2022-11-30T20:54:06.721Z,29.63
2022-11-30T20:56:38.023Z,29.13
2022-11-30T20:59:08.180Z,28.47
2022-11-30T21:01:35.872Z,29.07
2022-11-30T21:04:03.159Z,28.03
2022-11-30T21:06:30.585Z,28.07
2022-11-30T21:08:58.657Z,28.33
2022-11-30T21:11:27.398Z,28.97
2022-11-30T21:13:55.175Z,28.17
2022-11-30T21:16:28.104Z,29.27
2022-11-30T21:18:58.211Z,31.90
2022-11-30T21:21:27.939Z,28.03
2022-11-30T21:23:56.831Z,27.87
2022-11-30T21:26:27.056Z,27.63
2022-11-30T21:28:58.213Z,27.33
2022-11-30T21:31:25.663Z,28.30
2022-11-30T21:33:53.932Z,28.67
2022-11-30T21:36:22.464Z,29.40
2022-11-30T21:39:04.462Z,29.43
2022-11-30T21:41:33.769Z,30.23
2022-11-30T21:44:01.162Z,30.00
2022-11-30T21:46:28.423Z,28.93
2022-11-30T21:48:55.883Z,29.13
2022-11-30T21:51:25.225Z,28.77
2022-11-30T21:54:00.644Z,29.17
2022-11-30T21:56:30.825Z,29.27
2022-11-30T21:58:58.421Z,28.70
2022-11-30T22:01:29.135Z,30.67
2022-11-30T22:03:58.186Z,29.47
2022-11-30T22:06:26.486Z,31.07
2022-11-30T22:09:02.906Z,28.90
2022-11-30T22:11:30.992Z,29.53
2022-11-30T22:13:58.380Z,29.53
2022-11-30T22:16:32.456Z,30.77
2022-11-30T22:19:05.297Z,31.07
2022-11-30T22:21:33.806Z,30.47
2022-11-30T22:24:03.887Z,30.60
2022-11-30T22:26:33.678Z,28.70
2022-11-30T22:29:15.978Z,30.83
2022-11-30T22:31:45.943Z,29.30
2022-11-30T22:34:13.719Z,31.30
2022-11-30T22:36:42.802Z,31.07
2022-11-30T22:39:18.253Z,31.17
2022-11-30T22:41:49.960Z,31.33
2022-11-30T22:44:21.919Z,29.57
2022-11-30T22:46:49.303Z,29.53
2022-11-30T22:49:21.163Z,30.30
2022-11-30T22:51:50.089Z,30.87
2022-11-30T22:54:18.398Z,31.57
2022-11-30T22:56:46.695Z,30.50
2022-11-30T22:59:15.181Z,30.23
2022-11-30T23:01:45.543Z,30.77
2022-11-30T23:04:18.385Z,30.83
2022-11-30T23:06:47.374Z,31.27
2022-11-30T23:09:17.692Z,30.57
2022-11-30T23:11:45.328Z,29.57
2022-11-30T23:14:13.232Z,31.13
2022-11-30T23:16:40.687Z,30.93
2022-11-30T23:19:08.953Z,31.67
2022-11-30T23:21:41.780Z,32.33
2022-11-30T23:24:13.927Z,31.87
2022-11-30T23:26:41.957Z,31.33
2022-11-30T23:29:12.899Z,32.13
2022-11-30T23:31:42.203Z,32.17
2022-11-30T23:34:12.607Z,31.97
2022-11-30T23:36:39.822Z,33.00
2022-11-30T23:39:09.347Z,33.90
2022-11-30T23:41:36.510Z,32.30
2022-11-30T23:44:04.418Z,34.23
2022-11-30T23:46:31.595Z,34.77
2022-11-30T23:48:58.841Z,33.87
2022-11-30T23:51:26.535Z,33.00
2022-11-30T23:53:54.078Z,34.07
2022-11-30T23:56:23.170Z,33.53
2022-11-30T23:58:50.791Z,34.73
